Date,TemperatureHighF,TemperatureAvgF,TemperatureLowF,DewpointHighF,DewpointAvgF,DewpointLowF,HumidityHigh,HumidityAvg,HumidityLow,PressureMaxIn,PressureMinIn,WindSpeedMaxMPH,WindSpeedAvgMPH,GustSpeedMaxMPH,PrecipitationSumIn
2013-1-4,23,23,23,16,16,16,75,75,75,30.37,30.37,16,16,16,0.00
2013-1-7,33,30,25,27,25,23,93,82,76,30.48,30.25,18,11,26,0.00
2013-1-8,41,32,24,32,27,21,88,81,68,30.31,30.22,14,8,19,0.00
2013-1-9,45,40,36,38,35,30,92,82,70,30.53,30.18,16,9,19,0.02
2013-1-10,46,38,30,43,33,26,93,83,74,30.53,30.06,12,7,14,0.08
2013-1-11,58,53,46,54,49,42,96,88,78,30.06,29.82,20,12,26,0.50
2013-1-12,62,55,51,56,52,47,97,90,77,29.98,29.70,15,9,22,0.81
2013-1-13,55,38,23,55,36,20,97,94,87,30.22,29.65,23,10,27,1.13
2013-1-14,23,20,17,20,16,14,90,86,81,30.50,30.23,17,8,26,0.00
2013-1-15,29,25,20,24,20,17,90,82,72,30.45,30.14,15,10,18,0.00
2013-1-16,34,29,24,26,24,21,92,81,65,30.14,29.98,13,5,14,0.00
2013-1-17,37,31,23,31,25,17,89,80,64,30.44,30.11,14,6,18,0.00
2013-1-18,37,30,21,28,22,17,86,74,57,30.52,30.14,27,12,37,0.00
2013-1-19,51,44,36,38,32,26,75,64,55,30.16,29.86,24,14,26,0.00
2013-1-20,44,26,21,37,17,10,76,67,58,30.29,29.90,30,15,40,0.00
2013-1-21,22,15,8,14,7,-1,84,71,58,30.31,30.17,23,16,40,0.00
2013-1-22,15,9,4,3,0,-2,86,66,53,30.46,30.32,18,12,25,0.00
2013-1-23,22,16,11,16,7,2,81,67,52,30.42,30.16,16,5,23,0.00
2013-1-24,20,16,11,14,9,4,85,75,54,30.66,30.21,15,8,19,0.00
2013-1-28,51,49,45,50,48,44,98,96,95,30.03,-32.77,23,11,25,0.00
2013-1-29,63,56,50,59,54,50,98,93,84,29.99,29.40,26,18,35,0.00
2013-1-30,64,47,28,60,44,24,97,91,82,29.59,29.22,34,16,46,0.73
2013-1-31,28,21,10,24,16,4,91,81,72,30.14,29.58,30,21,39,0.00
2013-2-1,16,10,5,10,4,0,83,76,69,30.46,30.15,25,13,38,0.00
2013-2-2,27,22,16,24,19,10,92,87,76,30.33,30.03,18,9,27,0.00
2013-2-3,23,17,11,20,14,8,90,85,79,30.15,30.01,19,9,25,0.00
2013-2-4,36,27,19,32,23,15,92,83,73,30.14,29.83,20,6,27,0.00
2013-2-5,34,28,21,32,25,19,93,88,81,30.06,29.84,19,7,25,0.00
2013-2-6,36,32,29,31,25,22,95,78,64,30.29,30.06,12,5,15,0.00
2013-2-7,52,40,31,40,33,27,94,78,55,30.23,29.81,11,6,19,0.15
2013-2-8,41,34,32,40,32,29,99,92,84,30.15,29.82,19,14,27,0.02
2013-2-11,37,35,32,31,28,26,84,78,69,30.05,29.91,28,17,33,0.00
2013-2-12,41,32,28,33,28,25,91,82,66,30.15,29.97,14,8,22,0.00
2013-2-13,42,36,27,32,29,24,92,76,64,29.97,29.80,14,6,20,0.00
2013-2-14,47,38,33,39,34,29,93,84,71,30.00,29.80,23,14,30,0.00
2013-2-15,34,30,24,31,26,19,92,85,67,30.19,29.99,17,6,21,0.00
2013-2-16,25,22,18,22,15,8,87,76,57,30.19,30.12,18,10,23,0.00
2013-2-17,29,20,10,18,12,7,88,73,49,30.30,30.18,10,5,15,0.00
2013-2-18,56,40,26,43,30,16,90,66,51,30.20,29.58,35,17,44,0.08
2013-2-19,45,26,21,43,22,13,94,82,71,30.16,29.56,33,24,39,0.07
2013-2-20,23,18,12,16,12,6,83,76,69,30.38,30.16,23,11,39,0.00
2013-2-21,27,24,19,24,19,15,92,82,77,30.41,30.07,23,10,27,0.00
2013-2-22,35,32,26,34,31,24,96,93,87,30.09,29.89,17,9,22,0.08
2013-2-23,33,29,24,29,24,21,91,83,73,30.03,29.96,14,9,19,0.00
2013-2-24,37,30,22,27,24,19,89,79,65,30.19,30.00,11,6,15,0.00
2013-2-25,43,33,26,31,27,22,92,77,60,30.22,29.93,15,7,20,0.00
2013-2-26,40,35,32,40,32,27,100,89,78,29.93,29.41,27,6,34,0.60
2013-2-27,40,40,39,40,39,38,97,96,95,29.51,29.48,0,0,34,0.00
2013-2-28,38,35,32,35,32,30,100,91,84,30.00,29.79,12,9,34,0.01
2013-3-1,33,31,28,31,29,23,96,90,81,30.11,29.98,13,8,34,0.01
2013-3-2,31,28,26,25,22,20,84,77,67,30.14,30.10,15,9,20,0.00
2013-3-3,32,28,25,25,22,20,92,80,65,30.14,30.09,12,8,18,0.00
2013-3-4,37,30,21,31,24,18,92,78,59,30.19,30.02,13,5,15,0.00
2013-3-5,35,33,28,32,30,26,96,91,87,30.04,29.67,17,8,20,0.02
2013-3-6,33,30,27,30,28,25,96,93,88,30.30,29.76,17,10,22,0.11
2013-3-7,35,32,29,31,29,25,94,87,78,30.43,30.29,10,6,18,0.00
2013-3-8,39,32,24,30,25,21,90,77,61,30.52,30.41,9,3,12,0.00
2013-3-9,52,41,30,39,33,26,84,75,56,30.41,29.98,17,9,20,0.00
2013-3-10,63,56,51,45,40,37,65,57,43,29.98,29.72,24,14,38,0.00
2013-3-11,58,45,33,50,41,31,95,88,57,29.87,29.57,25,14,40,0.15
2013-3-12,40,34,31,32,29,25,95,82,64,30.05,29.87,22,14,28,0.00
2013-3-13,31,28,26,28,23,18,92,81,65,30.36,30.04,21,13,27,0.00
2013-3-14,41,33,22,30,24,18,90,70,40,30.38,30.17,12,7,22,0.00
2013-3-15,48,39,30,40,35,29,95,86,71,30.18,29.72,11,6,22,0.01
2013-3-16,44,39,33,41,36,30,96,92,84,30.08,29.63,14,6,22,0.01
2013-3-17,37,32,30,30,27,23,90,80,71,30.20,30.01,19,14,24,0.00
2013-3-18,42,36,32,40,34,27,96,93,83,30.01,29.58,22,9,31,0.18
2013-3-19,38,31,25,27,21,16,83,67,49,30.13,29.86,29,20,37,0.00
2013-3-20,31,26,21,23,17,11,81,68,53,30.12,30.03,23,15,32,0.00
2013-3-21,33,26,17,20,17,12,84,67,51,30.08,30.03,14,9,22,0.00
2013-3-22,41,31,22,23,20,17,86,64,43,30.10,30.02,10,4,22,0.00
2013-3-23,45,36,29,28,24,22,80,64,42,30.12,29.94,13,5,22,0.00
2013-3-24,34,31,28,30,28,26,95,89,77,29.96,29.50,29,18,36,0.01
2013-3-25,33,30,28,33,29,27,97,96,90,30.02,29.53,18,11,23,0.03
2013-3-26,37,33,31,31,30,28,100,87,75,30.27,30.02,19,10,22,0.01
2013-3-27,40,34,27,31,27,24,92,77,58,30.34,30.26,16,8,22,0.00
2013-3-28,45,37,28,31,28,25,89,71,54,30.39,30.32,9,4,22,0.00
2013-3-29,52,42,32,38,31,27,84,68,46,30.35,30.23,8,2,22,0.00
2013-3-30,55,46,31,39,34,27,88,66,46,30.25,29.92,13,4,22,0.00
2013-3-31,59,49,42,45,41,36,94,77,53,29.92,29.74,19,9,25,0.09
2013-4-1,43,37,30,35,25,19,81,63,41,30.17,29.84,17,10,24,0.00
2013-4-2,42,35,26,23,20,15,82,55,36,30.32,30.17,15,6,22,0.00
2013-4-3,45,36,25,24,19,14,71,51,37,30.47,30.32,14,3,22,0.00
2013-4-4,56,43,30,27,22,18,69,45,24,30.36,30.00,8,3,22,0.00
2013-4-5,56,46,36,35,28,23,76,51,30,30.17,29.98,12,4,22,0.00
2013-4-6,65,52,37,41,33,26,71,50,36,30.17,29.79,25,13,34,0.00
2013-4-7,70,62,54,47,43,38,67,51,33,29.95,29.75,22,12,29,0.00
2013-4-8,72,62,53,59,54,41,92,74,57,29.96,29.79,22,8,33,0.00
2013-4-9,80,68,54,61,57,50,89,69,46,29.99,29.83,22,9,31,0.00
2013-4-10,80,67,53,67,61,51,95,81,62,29.88,29.71,21,12,31,0.59
2013-4-11,66,60,49,62,58,47,96,91,83,29.75,29.51,19,10,28,0.82
2013-4-12,49,41,38,47,36,30,96,80,68,29.94,29.55,22,14,29,0.03
2013-4-13,46,42,39,37,35,32,87,78,63,30.04,29.93,24,11,31,0.00
2013-4-14,68,54,40,52,43,35,85,68,49,30.06,29.83,17,7,23,0.00
2013-4-15,67,61,53,58,53,47,84,75,61,29.94,29.83,17,11,25,0.00
2013-4-16,62,52,50,55,49,47,95,90,77,30.21,29.86,13,7,23,0.56
2013-4-17,72,57,47,67,54,44,95,89,80,30.22,29.86,17,9,24,0.19
2013-4-18,74,64,54,67,61,53,97,89,72,29.87,29.51,30,12,45,1.23
2013-4-19,54,40,37,53,35,31,96,84,71,29.97,29.51,28,18,35,0.51
2013-4-20,44,38,33,33,29,26,87,71,51,30.46,29.98,21,10,25,0.00
2013-4-21,52,41,30,34,29,24,80,63,42,30.58,30.39,13,7,22,0.00
2013-4-22,66,53,36,44,36,31,86,56,35,30.39,30.11,9,4,22,0.00
2013-4-23,66,58,50,57,50,40,95,75,57,30.12,29.77,19,7,29,0.45
2013-4-24,57,42,37,55,38,34,95,87,68,30.22,29.76,21,10,30,0.64
2013-4-25,50,46,38,42,34,28,86,66,44,30.39,30.20,25,10,34,0.00
2013-4-26,60,50,36,43,37,31,84,63,45,30.45,30.33,11,4,22,0.00
2013-4-27,65,56,45,51,43,34,86,64,42,30.35,29.99,15,7,23,0.02
2013-4-28,60,56,53,58,55,51,97,94,85,29.99,29.82,9,5,22,0.45
2013-4-29,66,59,55,57,55,52,97,85,67,29.98,29.88,12,5,22,0.00
2013-4-30,78,65,53,64,56,50,89,73,58,30.02,29.92,14,7,22,0.00
2013-5-1,81,71,57,60,56,51,85,61,41,30.13,30.02,10,3,22,0.00
2013-5-2,75,69,62,59,56,54,76,64,51,30.16,30.03,11,5,22,0.00
2013-5-3,75,68,62,61,55,43,81,65,40,30.03,29.89,18,8,27,0.00
2013-5-4,70,63,57,53,47,42,87,58,39,29.98,29.90,13,6,22,0.00
2013-5-5,62,58,53,53,51,47,95,79,59,29.97,29.92,17,5,22,0.02
2013-5-6,67,61,54,56,53,48,89,76,63,29.96,29.90,17,7,22,0.00
2013-5-7,73,62,55,57,55,52,92,79,54,29.99,29.91,11,3,22,0.00
2013-5-8,77,67,55,60,55,52,94,68,42,30.00,29.93,10,3,22,0.00
2013-5-9,79,65,58,60,56,49,94,75,38,29.98,29.86,22,4,29,0.46
2013-5-10,68,60,48,63,57,45,96,90,77,29.90,29.78,15,8,22,0.02
2013-5-11,60,49,43,54,45,38,95,87,75,30.03,29.85,23,8,32,0.00
2013-5-12,54,46,38,38,33,28,87,63,40,30.14,30.03,20,8,26,0.00
2013-5-13,62,52,40,38,32,25,81,50,26,30.20,30.10,15,5,24,0.00
2013-5-14,84,68,52,62,50,36,69,54,43,30.10,29.76,23,13,34,0.00
2013-5-15,86,78,70,66,61,56,83,56,43,29.83,29.75,26,14,34,0.01
2013-5-16,81,72,65,65,62,55,92,73,49,29.94,29.78,10,2,22,0.04
2013-5-17,81,68,61,66,63,59,96,86,55,30.03,29.94,16,4,31,1.06
2013-5-18,77,69,63,67,64,61,96,84,65,30.06,29.94,10,5,22,0.00
2013-5-19,83,73,63,70,66,61,95,79,56,29.96,29.82,10,4,22,0.00
2013-5-20,84,77,72,71,69,67,92,77,60,29.90,29.77,16,9,30,0.00
2013-5-21,84,73,63,68,64,61,93,74,50,29.85,29.71,29,11,46,0.05
2013-5-22,74,68,62,65,62,59,94,84,65,29.76,29.67,20,8,30,0.40
2013-5-23,64,58,48,60,54,45,93,88,79,30.16,29.75,18,10,24,0.04
2013-5-24,64,53,44,45,42,36,93,69,38,30.36,30.16,11,7,22,0.00
2013-5-25,64,55,45,48,42,37,85,65,39,30.39,30.22,9,2,22,0.00
2013-5-26,68,60,49,56,48,42,80,65,48,30.30,30.16,8,3,22,0.02
2013-5-27,76,64,54,67,59,52,95,85,67,30.17,29.88,20,7,27,1.05
2013-5-28,81,73,64,69,66,62,95,80,65,29.94,29.85,20,10,29,0.00
2013-5-29,85,76,68,68,64,61,78,66,49,29.99,29.91,17,9,24,0.00
2013-5-30,86,78,70,70,67,64,83,70,55,30.03,29.90,19,10,31,0.00
2013-5-31,76,72,67,70,68,64,94,86,76,29.96,29.83,17,10,26,0.26
2013-6-1,75,69,64,70,65,62,96,86,76,29.86,29.73,20,9,29,0.58
2013-6-2,68,63,54,63,58,50,91,85,77,29.98,29.76,15,9,22,0.08
2013-6-3,67,56,46,51,47,41,91,72,42,30.09,29.97,13,5,22,0.00
2013-6-4,74,66,53,54,48,43,80,54,35,30.15,30.05,11,5,22,0.00
2013-6-5,81,68,55,57,52,48,79,58,39,30.08,29.85,17,5,23,0.00
2013-6-6,74,65,59,62,56,50,84,73,64,29.87,29.77,11,6,22,0.00
2013-6-7,73,65,58,59,57,54,92,75,56,29.88,29.81,12,6,22,0.00
2013-6-8,76,67,58,62,57,52,89,71,53,30.00,29.88,11,4,22,0.00
2013-6-9,81,72,64,67,62,57,90,73,46,30.01,29.80,14,5,25,0.01
2013-6-10,75,69,64,66,64,61,96,84,63,29.83,29.74,15,7,22,0.41
2013-6-11,84,72,63,69,65,61,97,81,51,29.94,29.83,11,5,22,0.07
2013-6-12,89,79,70,75,72,62,93,78,61,29.88,29.60,21,6,29,0.00
2013-6-13,75,68,61,72,64,54,93,89,79,29.95,29.57,21,7,37,1.36
2013-6-14,80,68,56,64,58,54,94,74,47,30.06,29.92,8,4,22,0.00
2013-6-15,80,71,62,67,62,57,84,73,53,30.08,29.91,10,3,22,0.00
2013-6-16,79,72,67,70,66,64,92,82,70,29.95,29.88,23,8,27,0.11
2013-6-17,86,76,66,72,66,61,97,75,45,29.94,29.83,6,2,22,0.00
2013-6-18,80,73,66,68,64,59,90,75,57,29.99,29.84,14,7,22,0.00
2013-6-19,81,69,59,61,58,56,93,69,45,30.10,29.98,11,5,22,0.00
2013-6-20,71,65,63,61,57,55,81,75,67,30.16,30.09,1,0,22,0.00
2013-6-21,87,81,72,66,64,59,77,58,43,30.17,29.99,14,5,22,0.00
2013-6-22,89,76,70,73,69,65,92,78,54,30.10,29.99,19,6,24,0.00
2013-6-23,87,77,70,72,69,64,93,78,52,30.07,29.99,21,8,26,0.00
2013-6-24,85,76,70,72,68,63,94,78,58,30.09,29.95,20,6,26,0.00
2013-6-25,89,79,69,74,71,65,94,78,57,29.98,29.81,32,8,32,0.04
2013-6-26,84,74,67,75,69,66,95,85,70,29.88,29.70,24,6,24,0.22
2013-6-27,76,70,68,72,69,66,97,95,87,29.74,29.71,13,5,13,0.00
2013-6-28,82,74,65,68,65,61,92,74,53,29.64,29.56,16,6,22,0.02
2013-6-29,73,66,62,66,63,61,97,92,76,29.66,29.54,8,2,22,0.47
2013-6-30,72,67,62,66,63,61,97,89,78,29.87,29.66,16,8,22,1.12
2013-7-1,69,66,63,64,62,59,92,87,82,29.95,29.84,19,12,24,0.01
2013-7-2,75,66,60,69,63,59,96,91,78,29.99,29.92,21,6,28,0.80
2013-7-3,79,70,62,69,65,61,100,84,62,30.07,29.98,12,4,22,0.01
2013-7-4,77,70,63,69,66,61,96,87,71,30.12,30.03,4,0,22,0.02
2013-7-5,80,72,66,70,67,65,97,86,67,30.11,30.02,8,1,22,0.00
2013-7-6,74,70,67,69,68,64,96,91,82,30.08,30.00,9,2,22,0.00
2013-7-7,82,73,65,72,68,64,97,85,62,30.08,29.98,8,4,22,0.00
2013-7-8,85,78,71,75,71,67,91,81,67,30.07,29.97,11,6,22,0.00
2013-7-9,87,80,74,78,74,70,89,81,67,30.01,29.90,14,6,22,0.00
2013-7-10,85,77,66,78,72,62,92,85,70,29.95,29.78,22,7,35,0.21
2013-7-11,76,70,62,63,60,57,89,71,52,30.03,29.93,15,7,22,0.00
2013-7-12,77,68,57,63,60,55,93,76,55,30.10,30.03,13,5,22,0.00
2013-7-13,82,71,59,69,64,57,95,79,60,30.13,30.06,12,4,22,0.00
2013-7-14,88,77,65,76,70,62,93,78,60,30.18,30.11,6,2,22,0.00
2013-7-15,88,81,73,74,72,70,92,76,60,30.26,30.17,8,2,22,0.00
2013-7-16,92,81,71,76,73,68,93,77,53,30.30,30.22,2,0,22,0.00
2013-7-17,91,82,72,76,73,70,96,77,56,30.30,30.15,6,1,22,0.00
2013-7-18,92,82,72,77,74,70,95,77,54,30.17,29.98,5,1,22,0.00
2013-7-19,89,81,75,77,74,72,92,81,61,29.99,29.86,15,6,22,0.00
2013-7-21,84,80,74,74,72,69,87,77,65,29.93,29.85,6,0,22,0.01
2013-7-22,81,74,68,72,69,66,94,86,70,29.85,29.74,9,2,22,0.00
2013-7-23,84,74,60,74,67,56,95,81,60,29.87,29.71,17,7,24,0.00
2013-7-24,71,63,54,57,55,52,93,77,58,30.01,29.85,13,6,22,0.00
2013-7-25,75,65,53,59,55,51,94,74,53,30.10,30.01,9,2,22,0.00
2013-7-26,79,69,57,63,59,53,89,72,54,30.08,29.91,11,3,22,0.00
2013-7-27,75,68,57,66,60,51,96,77,52,29.91,29.81,17,8,25,0.02
2013-7-28,71,61,50,55,51,47,90,71,51,30.04,29.90,17,6,31,0.00
2013-7-29,76,66,56,59,56,53,91,72,52,30.17,30.03,11,3,22,0.00
2013-7-30,76,67,54,65,60,52,94,80,61,30.20,30.08,5,1,22,0.00
2013-7-31,74,69,65,70,66,62,97,92,85,30.09,29.91,8,2,22,0.23
2013-8-1,79,70,62,66,62,57,97,78,51,29.98,29.91,17,5,22,0.00
2013-8-2,83,70,56,67,62,54,93,76,58,29.97,29.89,16,5,24,0.01
2013-8-3,80,70,60,68,64,55,97,82,58,30.06,29.91,11,4,22,0.50
2013-8-4,76,65,54,60,56,52,92,75,48,30.16,30.06,9,3,22,0.00
2013-8-5,77,67,61,64,60,57,96,81,54,30.10,29.93,7,3,22,0.25
2013-8-6,78,70,62,71,66,60,93,86,78,29.94,29.87,7,3,22,0.00
2013-8-7,83,75,70,74,71,68,97,88,69,29.89,29.82,8,4,22,0.00
2013-8-8,78,72,68,73,70,67,97,93,86,29.92,29.87,11,4,22,0.08
2013-8-9,82,73,68,69,67,65,96,83,59,30.02,29.89,8,3,22,0.00
2013-8-10,83,74,66,71,67,64,95,80,59,30.08,30.01,9,2,22,0.00
2013-8-11,82,72,62,72,65,61,98,82,55,30.09,30.02,8,1,22,0.00
2013-8-12,82,69,62,69,65,61,96,87,62,30.06,29.96,6,1,22,0.00
2013-8-14,68,62,50,54,51,47,94,68,53,30.20,30.14,11,4,22,0.00
2013-8-15,72,63,48,56,53,47,96,70,52,30.19,30.10,1,0,22,0.00
2013-8-16,72,64,55,60,56,52,93,77,55,30.17,30.11,10,2,22,0.00
2013-8-17,77,66,56,62,58,53,92,77,53,30.20,30.12,10,4,22,0.00
2013-8-18,82,70,57,67,60,55,96,75,47,30.18,30.08,6,1,22,0.00
2013-8-19,83,71,60,69,62,57,92,75,51,30.12,30.03,4,0,22,0.00
2013-8-20,84,74,60,68,64,59,95,75,50,30.14,30.05,6,1,22,0.00
2013-8-21,86,75,66,72,67,63,92,78,52,30.12,30.00,9,1,22,0.00
2013-8-22,80,72,67,71,68,65,94,86,73,30.07,29.97,10,3,22,0.10
2013-8-23,80,69,62,70,64,60,98,86,60,30.15,30.04,7,3,22,0.00
2013-8-24,83,70,56,64,58,51,92,70,39,30.26,30.14,7,4,22,0.00
2013-8-25,87,74,59,66,61,57,93,68,41,30.29,30.18,7,2,22,0.00
2013-8-26,87,76,64,74,67,59,88,74,54,30.21,30.04,11,4,22,0.00
2013-8-27,90,79,70,76,72,68,95,80,53,30.03,29.90,12,4,22,0.00
2013-8-28,88,80,73,76,72,69,95,79,66,29.95,29.86,15,7,22,0.00
2013-8-29,86,76,67,75,70,66,98,83,59,30.03,29.95,9,2,22,0.00
2013-8-30,77,68,64,71,66,63,96,93,84,29.97,29.94,6,0,22,0.00
2013-9-5,82,72,59,66,61,50,94,70,57,30.19,30.14,9,4,22,0.00
2013-9-6,84,67,52,61,53,48,89,64,36,30.23,30.05,7,2,22,0.00
2013-9-7,86,74,61,68,62,54,81,68,47,30.06,29.91,12,4,22,0.00
2013-9-8,85,75,65,71,67,63,94,78,56,29.97,29.90,14,4,22,0.00
2013-9-9,91,78,65,73,69,63,95,77,51,29.98,29.88,13,5,23,0.00
2013-9-10,95,82,73,76,70,65,94,71,39,30.06,29.94,12,6,22,0.00
2013-9-11,93,83,71,72,66,63,94,59,38,30.08,29.96,14,6,23,0.00
2013-9-12,81,72,60,70,63,52,95,76,46,29.96,29.82,16,5,24,0.24
2013-9-13,66,57,47,54,47,43,93,72,46,30.11,29.96,12,4,22,0.00
2013-9-14,71,55,41,49,42,36,95,66,32,30.21,30.08,6,1,22,0.00
2013-9-15,76,61,49,57,49,43,94,70,37,30.13,29.99,9,3,22,0.04
2013-9-16,63,58,52,56,54,49,96,85,70,30.30,30.09,12,4,22,0.03
2013-9-17,72,60,46,54,51,45,95,74,49,30.33,30.14,9,4,22,0.00
2013-9-18,80,69,59,66,59,53,89,72,48,30.14,30.00,7,2,22,0.00
2013-9-19,81,71,65,71,68,63,97,90,70,30.04,29.88,9,4,22,1.79
2013-9-20,79,71,63,71,68,61,97,91,74,29.92,29.76,11,5,22,0.64
2013-9-21,70,61,51,61,52,46,96,76,45,29.90,29.74,11,5,22,0.09
2013-9-22,66,56,46,52,47,44,95,75,46,30.03,29.90,7,3,22,0.00
2013-9-23,69,56,45,49,46,42,93,74,46,30.12,30.03,9,4,22,0.00
2013-9-24,72,58,45,53,48,42,94,72,48,30.09,29.91,10,5,22,0.00
2013-9-25,75,61,50,56,50,47,92,71,41,29.94,29.86,10,5,22,0.00
2013-9-26,78,62,48,59,52,46,97,74,44,30.08,29.93,10,5,22,0.00
2013-9-27,79,64,48,55,49,42,92,63,29,30.17,30.07,10,4,22,0.00
2013-9-28,81,67,51,58,54,47,89,67,43,30.15,30.00,11,5,23,0.00
2013-9-29,64,62,55,63,59,54,100,92,80,30.01,29.95,8,4,22,0.47
2013-9-30,75,63,56,64,59,55,98,88,55,30.01,29.91,10,3,22,0.02
2013-10-1,75,66,60,64,62,59,97,87,66,30.04,29.97,10,5,22,0.00
2013-10-2,79,68,63,72,65,61,98,90,67,30.08,30.00,8,0,22,0.01
2013-10-3,80,72,66,69,66,64,96,84,64,30.02,29.92,11,5,22,0.00
2013-10-4,82,73,67,70,68,65,95,84,65,30.02,29.95,11,4,22,0.02
2013-10-5,75,70,66,71,68,64,97,93,85,30.00,29.83,11,5,22,0.97
2013-10-6,66,59,46,65,56,42,97,92,69,29.84,29.71,14,6,22,0.95
2013-10-7,62,52,45,49,46,41,95,81,59,30.16,29.80,15,4,23,0.06
2013-10-8,70,58,46,53,47,44,94,70,43,30.26,30.16,8,2,22,0.00
2013-10-9,73,62,45,52,48,42,91,63,42,30.25,30.14,7,2,22,0.00
2013-10-10,74,61,46,52,47,43,92,63,36,30.19,30.07,5,0,22,0.00
2013-10-11,78,66,51,54,50,44,88,59,38,30.11,30.00,6,1,22,0.00
2013-10-12,78,65,52,61,54,48,90,70,42,30.11,30.00,8,2,22,0.00
2013-10-13,70,60,48,61,47,40,90,66,34,30.34,30.11,9,4,22,0.03
2013-10-14,67,54,40,51,44,38,94,73,42,30.36,30.18,8,3,22,0.00
2013-10-15,66,60,49,62,58,45,95,90,84,30.18,29.88,10,5,24,0.03
2013-10-16,64,54,44,62,47,41,95,77,57,29.97,29.86,13,5,22,0.00
2013-10-17,52,46,41,50,43,39,96,89,77,29.96,29.88,15,3,22,0.07
2013-10-18,65,51,41,49,44,38,94,78,45,29.99,29.91,17,5,23,0.00
2013-10-19,52,45,41,42,39,36,94,81,55,29.96,29.87,16,4,24,0.27
2013-10-20,63,51,40,44,41,36,88,70,48,30.00,29.91,15,8,30,0.00
2013-10-21,58,49,37,48,42,29,89,78,66,30.00,29.88,11,8,22,0.00
2013-10-22,50,39,30,36,31,27,94,76,44,30.05,29.85,10,5,22,0.02
2013-10-23,46,39,33,39,33,28,96,82,51,30.06,29.85,16,6,23,0.14
2013-10-24,42,38,32,35,31,27,88,77,59,30.32,30.05,10,5,22,0.00
2013-10-25,48,37,27,32,27,25,90,69,44,30.46,30.24,10,4,22,0.00
2013-10-26,54,43,34,41,33,27,82,68,56,30.24,29.93,16,7,27,0.00
2013-10-27,55,43,33,38,33,30,91,69,44,30.13,30.04,9,2,22,0.00
2013-10-28,59,46,33,41,34,29,90,66,38,30.33,30.10,5,0,22,0.00
2013-10-29,57,47,36,46,40,34,100,79,56,30.38,30.18,8,5,22,0.00
2013-10-30,64,57,50,62,55,46,97,94,83,30.18,29.91,13,5,22,0.12
2013-10-31,64,61,52,62,59,50,96,94,89,29.92,29.24,21,13,35,1.82
2013-11-1,55,50,45,50,45,42,96,85,73,29.75,29.40,17,8,26,0.00
2013-11-2,51,46,42,44,41,39,94,86,65,30.13,29.75,14,6,22,0.01
2013-11-3,52,43,35,43,38,34,96,83,54,30.36,30.13,5,2,22,0.00
2013-11-4,46,42,41,38,37,36,84,80,69,30.37,30.34,11,5,22,0.00
2013-11-7,47,42,34,36,32,27,87,69,48,30.29,30.20,18,10,25,0.00
2013-11-8,50,38,29,35,31,27,93,76,51,30.39,30.18,12,4,22,0.00
2013-11-9,60,50,40,43,37,29,74,62,52,30.18,29.98,19,12,28,0.00
2013-11-10,48,41,34,39,33,29,84,73,58,30.35,30.09,16,7,22,0.00
2013-11-11,50,41,29,40,34,27,94,78,58,30.37,30.09,18,8,25,0.03
2013-11-12,34,29,23,28,24,20,94,82,66,30.66,30.37,11,6,22,0.00
2013-11-13,39,31,20,22,20,17,90,66,45,30.65,30.36,8,5,22,0.00
2013-11-14,54,40,28,25,22,18,76,53,25,30.36,30.09,18,10,26,0.00
2013-11-15,50,44,40,39,29,23,84,56,45,30.12,30.04,14,9,22,0.00
2013-11-16,60,51,42,58,48,38,94,90,84,30.07,29.75,23,11,32,0.00
2013-11-17,66,59,47,62,55,42,95,87,67,29.79,29.35,35,18,49,0.75
2013-11-18,47,42,33,42,35,28,86,77,58,30.22,29.77,25,14,34,0.00
2013-11-19,40,34,28,31,28,25,89,80,67,30.37,30.22,10,3,22,0.00
2013-11-20,46,37,26,36,30,23,89,78,63,30.37,30.20,11,5,22,0.00
2013-11-21,50,47,43,48,43,35,95,86,62,30.28,30.18,11,4,22,0.38
2013-11-22,50,42,32,49,40,29,97,93,85,30.44,30.16,13,4,22,0.11
2013-11-23,32,27,21,29,22,16,91,82,62,30.64,30.40,19,8,29,0.00
2013-11-24,26,20,13,18,14,10,88,75,51,30.75,30.55,9,3,22,0.00
2013-11-25,33,28,20,23,18,13,77,67,55,30.55,30.19,17,6,24,0.00
2013-11-26,35,32,29,29,26,23,88,79,72,30.22,29.99,15,3,23,0.00
2013-11-27,29,24,19,26,19,14,92,82,67,30.33,30.02,16,8,22,0.00
2013-11-28,35,26,19,20,17,14,84,70,50,30.49,30.27,16,4,22,0.00
2013-11-29,37,28,18,25,21,15,88,75,59,30.67,30.49,5,2,22,0.00
2013-11-30,48,37,27,33,27,22,83,69,53,30.52,30.15,13,6,22,0.00
2013-12-1,49,40,35,38,32,28,88,73,60,30.15,29.99,10,5,22,0.00
2013-12-2,44,38,32,37,34,30,93,87,76,29.99,29.81,10,6,22,0.04
2013-12-3,50,43,36,49,42,34,97,94,91,29.86,29.77,11,5,22,0.00
2013-12-4,59,53,45,58,51,43,100,94,89,29.83,29.64,16,7,23,0.01
2013-12-5,59,38,24,56,34,22,93,87,79,30.22,29.69,17,9,22,0.00
2013-12-6,28,25,22,24,22,19,93,88,84,30.48,30.20,7,3,22,0.00
2013-12-7,24,18,10,19,14,7,89,83,72,30.68,30.47,5,2,22,0.01
2013-12-8,29,23,16,28,20,12,95,87,78,30.59,30.03,17,7,22,0.00
2013-12-9,30,25,20,28,21,14,95,86,76,30.28,30.00,17,9,23,0.00
2013-12-10,26,20,9,17,13,4,82,73,61,30.38,30.16,24,7,31,0.00
2013-12-11,27,19,8,22,14,4,88,83,77,30.58,30.34,13,4,22,0.00
2013-12-12,22,12,1,8,3,-3,84,69,48,30.61,30.36,9,3,22,0.00
2013-12-13,32,24,16,30,17,6,94,74,62,30.36,30.16,8,4,22,0.00
2013-12-14,33,31,25,32,30,23,97,96,94,30.18,29.76,11,5,22,0.18
2013-12-15,27,21,15,26,17,10,95,86,80,30.16,29.95,15,10,22,0.00
2013-12-16,27,20,15,26,18,13,96,91,86,30.18,30.03,8,3,22,0.00
2013-12-17,28,24,19,26,22,18,100,93,88,30.17,30.04,14,7,22,0.00
2013-12-18,34,25,13,24,18,10,90,76,62,30.29,30.02,24,8,34,0.00
2013-12-19,43,39,33,37,31,22,80,74,63,30.03,29.97,19,12,22,0.00
2013-12-20,58,56,53,57,55,51,97,96,93,29.77,29.75,14,6,22,0.32
2013-12-21,53,41,37,51,40,36,100,96,91,29.84,29.50,11,5,22,1.48
2013-12-22,45,38,32,45,37,30,98,94,91,30.09,29.33,15,4,22,0.04
2013-12-23,32,26,15,30,22,10,92,86,79,30.45,30.09,15,10,22,0.00
2013-12-24,19,13,6,14,8,1,92,81,76,30.63,30.45,13,6,22,0.00
2013-12-25,29,24,18,27,19,14,92,80,74,30.51,30.19,18,6,26,0.00
2013-12-26,36,30,22,28,23,16,92,76,61,30.39,30.17,20,9,25,0.00
2013-12-27,46,37,29,34,30,25,92,76,64,30.40,30.24,12,6,22,0.00
2013-12-28,50,41,35,39,34,31,86,77,57,30.24,29.97,15,9,22,0.00
2013-12-29,43,36,26,36,31,24,94,82,71,30.09,29.81,19,10,26,0.00
2013-12-30,26,20,18,24,16,13,98,84,74,30.32,30.09,14,6,22,0.00
2013-12-31,29,22,18,22,17,13,92,79,67,30.42,30.21,15,8,23,0.00
2014-1-1,33,26,21,28,22,18,98,88,83,30.32,30.08,13,7,22,0.00
2014-1-2,22,16,5,20,13,0,93,88,77,30.39,29.96,20,12,26,0.00